Home > Products > Valid Products > TAF

000
FTUS43 KFSD 280541
TAFFSD
TAF
KFSD 280541Z 2806/2906 15011KT P6SM OVC120
     FM281400 18006KT P6SM SCT100
     FM290000 14005KT P6SM SCT250=



000
FTUS43 KFSD 280541
TAFSUX
TAF
KSUX 280541Z 2806/2906 14011KT P6SM SCT120
     FM281400 18005KT P6SM SCT200
     FM290000 14005KT P6SM SCT250=



000
FTUS43 KFSD 280541
TAFSUX
TAF
KSUX 280541Z 2806/2906 14011KT P6SM SCT120
     FM281400 18005KT P6SM SCT200
     FM290000 14005KT P6SM SCT250=



000
FTUS43 KFSD 280541
TAFHON
TAF
KHON 280541Z 2806/2906 14011KT P6SM SCT200
     FM281300 17006KT P6SM SCT090=



000
FTUS43 KFSD 280409 AAB
TAFFSD
TAF AMD
KFSD 280409Z 2804/2824 14014KT P6SM OVC110
     FM280600 16013KT P6SM BKN100
     FM281400 18006KT P6SM SCT150=



000
FTUS43 KFSD 280146 AAA
TAFHON
TAF AMD
KHON 280146Z 2802/2824 14014KT P6SM SCT100 BKN140
     FM280900 15007KT P6SM BKN100=



000
FTUS43 KFSD 280146 AAA
TAFHON
TAF AMD
KHON 280146Z 2802/2824 14014KT P6SM SCT100 BKN140
     FM280900 15007KT P6SM BKN100=



000
FTUS43 KFSD 272320
TAFHON
TAF
KHON 272320Z 2800/2824 14012KT P6SM BKN080
     FM280900 15007KT P6SM BKN100=



000
FTUS43 KFSD 272320
TAFFSD
TAF
KFSD 272320Z 2800/2824 14011KT P6SM SCT040 OVC120
     FM280600 16013KT P6SM BKN100
     FM281400 18006KT P6SM SCT150=



000
FTUS43 KFSD 272320
TAFSUX
TAF
KSUX 272320Z 2800/2824 13010KT P6SM OVC050
     FM280200 14013KT P6SM SCT100
     FM281400 18005KT P6SM SCT200=



000
FTUS43 KFSD 272320
TAFSUX
TAF
KSUX 272320Z 2800/2824 13010KT P6SM OVC050
     FM280200 14013KT P6SM SCT100
     FM281400 18005KT P6SM SCT200=



000
FTUS43 KFSD 271731
TAFFSD
TAF
KFSD 271731Z 2718/2818 14011KT P6SM OVC050
     FM280200 16013KT P6SM SCT100=



000
FTUS43 KFSD 271731
TAFSUX
TAF
KSUX 271731Z 2718/2818 13010KT P6SM OVC050
     FM280200 14013KT P6SM SCT100=



000
FTUS43 KFSD 271731
TAFHON
TAF
KHON 271731Z 2718/2818 13008KT P6SM OVC035
     FM272200 14012KT P6SM BKN080
     FM280900 15007KT P6SM BKN100=



000
FTUS43 KFSD 271731
TAFSUX
TAF
KSUX 271731Z 2718/2818 13010KT P6SM OVC050
     FM280200 14013KT P6SM SCT100=



000
FTUS43 KFSD 271652 AAA
TAFHON
TAF AMD
KHON 271652Z 2717/2812 13008KT P6SM OVC035
     FM272100 14012KT P6SM BKN080
     FM280900 16006KT P6SM SCT100=



000
FTUS43 KFSD 271140
TAFSUX
TAF
KSUX 271140Z 2712/2812 05007KT P6SM OVC050
     FM271800 13010KT P6SM OVC050
     FM280200 14013G20KT P6SM SCT100=



000
FTUS43 KFSD 271140
TAFSUX
TAF
KSUX 271140Z 2712/2812 05007KT P6SM OVC050
     FM271800 13010KT P6SM OVC050
     FM280200 14013G20KT P6SM SCT100=



000
FTUS43 KFSD 271140
TAFHON
TAF
KHON 271140Z 2712/2812 VRB03KT P6SM FEW025 SCT150
     FM271500 13008KT P6SM OVC035
      TEMPO 2715/2718 P6SM BKN025
     FM272100 14012KT P6SM BKN080
     FM280900 16006KT P6SM SCT100=



000
FTUS43 KFSD 271140
TAFFSD
TAF
KFSD 271140Z 2712/2812 VRB03KT P6SM SKC
     FM271500 10004KT P6SM BKN035
     FM271900 14011KT P6SM OVC050
     FM280200 16013G20KT P6SM SCT100=



000
FTUS43 KFSD 270539
TAFFSD
TAF
KFSD 270539Z 2706/2806 35010KT P6SM SCT070
     FM270800 VRB04KT P6SM SKC
     FM271700 13010KT P6SM BKN100
     FM272000 14011KT P6SM OVC040
     FM280100 14013KT P6SM OVC040=



000
FTUS43 KFSD 270539
TAFSUX
TAF
KSUX 270539Z 2706/2806 33009KT P6SM BKN070
     FM271000 VRB04KT P6SM SCT070
     FM271700 13010KT P6SM BKN050=



000
FTUS43 KFSD 270539
TAFSUX
TAF
KSUX 270539Z 2706/2806 33009KT P6SM BKN070
     FM271000 VRB04KT P6SM SCT070
     FM271700 13010KT P6SM BKN050=



000
FTUS43 KFSD 270539
TAFHON
TAF
KHON 270539Z 2706/2806 VRB03KT P6SM SCT150
     FM271500 13008KT P6SM BKN120
     FM271900 14010KT P6SM OVC040
     FM280000 15012KT P6SM SCT050=



000
FTUS43 KFSD 262320
TAFFSD
TAF
KFSD 262320Z 2700/2724 34010KT P6SM SCT080
     FM270800 VRB04KT P6SM SKC
     FM271700 13010KT P6SM BKN040=



000
FTUS43 KFSD 262320
TAFHON
TAF
KHON 262320Z 2700/2724 35007KT P6SM BKN100
     FM270400 VRB03KT P6SM BKN100
     FM271500 13008KT P6SM BKN080
     FM271900 14010KT P6SM OVC040=



000
FTUS43 KFSD 262320
TAFSUX
TAF
KSUX 262320Z 2700/2724 33015G22KT P6SM BKN020
     FM270200 33009KT P6SM SCT080
     FM270700 VRB04KT P6SM SCT080
     FM271700 13009KT P6SM BKN050=



000
FTUS43 KFSD 262320
TAFSUX
TAF
KSUX 262320Z 2700/2724 33015G22KT P6SM BKN020
     FM270200 33009KT P6SM SCT080
     FM270700 VRB04KT P6SM SCT080
     FM271700 13009KT P6SM BKN050=



000
FTUS43 KFSD 262046 AAA
TAFSUX
TAF AMD
KSUX 262046Z 2621/2718 35015G23KT P6SM OVC020
     FM270000 33010KT P6SM SKC
     FM270700 VRB04KT P6SM SCT120
     FM271600 12006KT P6SM BKN120=



000
FTUS43 KFSD 262046 AAA
TAFSUX
TAF AMD
KSUX 262046Z 2621/2718 35015G23KT P6SM OVC020
     FM270000 33010KT P6SM SKC
     FM270700 VRB04KT P6SM SCT120
     FM271600 12006KT P6SM BKN120=



000
FTUS43 KFSD 262045 AAB
TAFFSD
TAF AMD
KFSD 262045Z 2621/2718 35014KT P6SM OVC015
     FM262300 34012KT P6SM SCT025 SCT100
     FM270000 34007KT P6SM SKC
     FM270600 VRB04KT P6SM SCT120=



000
FTUS43 KFSD 262040 AAA
TAFHON
TAF AMD
KHON 262040Z 2621/2718 36012KT P6SM SCT100
     FM262300 35007KT P6SM BKN100
     FM270400 VRB03KT P6SM BKN100
     FM271500 15008KT P6SM BKN080=



000
FTUS43 KFSD 261720
TAFSUX
TAF
KSUX 261720Z 2618/2718 35022G30KT P6SM OVC015
     FM262130 34015G22KT P6SM SKC
     FM270100 33010KT P6SM SKC
     FM270700 VRB04KT P6SM SCT120
     FM271600 12006KT P6SM BKN120=



000
FTUS43 KFSD 261720
TAFHON
TAF
KHON 261720Z 2618/2718 36018G26KT P6SM SCT100
     FM262300 35007KT P6SM BKN100
     FM270400 VRB03KT P6SM BKN100
     FM271500 15008KT P6SM BKN080=



000
FTUS43 KFSD 261720
TAFFSD
TAF
KFSD 261720Z 2618/2718 35019G27KT P6SM SKC
     FM262100 34014G24KT P6SM SCT025 SCT100
     FM270000 34009KT P6SM SKC
     FM270600 VRB04KT P6SM SCT120=



000
FTUS43 KFSD 261720
TAFSUX
TAF
KSUX 261720Z 2618/2718 35022G30KT P6SM OVC015
     FM262130 34015G22KT P6SM SKC
     FM270100 33010KT P6SM SKC
     FM270700 VRB04KT P6SM SCT120
     FM271600 12006KT P6SM BKN120=



000
FTUS43 KFSD 261609 AAB
TAFSUX
TAF AMD
KSUX 261609Z 2616/2712 35022G30KT P6SM OVC015
     FM262130 34015G22KT P6SM SCT030
     FM270100 33010KT P6SM SCT040
     FM270700 34005KT P6SM SCT040=



000
FTUS43 KFSD 261609 AAB
TAFSUX
TAF AMD
KSUX 261609Z 2616/2712 35022G30KT P6SM OVC015
     FM262130 34015G22KT P6SM SCT030
     FM270100 33010KT P6SM SCT040
     FM270700 34005KT P6SM SCT040=



000
FTUS43 KFSD 261609 AAB
TAFSUX
TAF AMD
KSUX 261609Z 2616/2712 35022G30KT P6SM OVC015
     FM262130 34015G22KT P6SM SCT030
     FM270100 33010KT P6SM SCT040
     FM270700 34005KT P6SM SCT040=



000
FTUS43 KFSD 261609 AAB
TAFSUX
TAF AMD
KSUX 261609Z 2616/2712 35022G30KT P6SM OVC015
     FM262130 34015G22KT P6SM SCT030
     FM270100 33010KT P6SM SCT040
     FM270700 34005KT P6SM SCT040=



000
FTUS43 KFSD 261604 AAC
TAFHON
TAF AMD
KHON 261604Z 2616/2712 36020G28KT P6SM BKN070
     FM261900 34018G25KT P6SM BKN030
     FM262100 35014G20KT P6SM BKN035
     FM270100 36006KT P6SM SCT040 BKN120
     FM270700 VRB03KT P6SM BKN100=



000
FTUS43 KFSD 261603 AAC
TAFFSD
TAF AMD
KFSD 261603Z 2616/2712 35019G27KT P6SM BKN060
     FM262000 34018G25KT P6SM SCT025 BKN050
     FM270000 34009KT P6SM SCT040
     FM270700 34004KT P6SM SCT120=



000
FTUS43 KFSD 261427 AAB
TAFHON
TAF AMD
KHON 261427Z 2614/2712 36022G30KT P6SM BKN070
      TEMPO 2614/2616 2SM BR OVC010
     FM261700 34018G25KT P6SM BKN030
     FM262100 35014G20KT P6SM BKN035
     FM270100 36006KT P6SM SCT040 BKN120
     FM270700 VRB03KT P6SM BKN100=



000
FTUS43 KFSD 261323 AAA
TAFSUX
TAF AMD
KSUX 261323Z 2613/2712 35022G30KT 6SM -SN OVC007
      TEMPO 2613/2615 4SM -SN BKN015
     FM261500 34022G30KT P6SM BKN015
     FM261700 34022G30KT P6SM BKN025
     FM262300 34015G22KT P6SM SCT030
     FM270100 33010KT P6SM SCT040
     FM270700 34005KT P6SM SCT040=



000
FTUS43 KFSD 261323 AAA
TAFSUX
TAF AMD
KSUX 261323Z 2613/2712 35022G30KT 6SM -SN OVC007
      TEMPO 2613/2615 4SM -SN BKN015
     FM261500 34022G30KT P6SM BKN015
     FM261700 34022G30KT P6SM BKN025
     FM262300 34015G22KT P6SM SCT030
     FM270100 33010KT P6SM SCT040
     FM270700 34005KT P6SM SCT040=



000
FTUS43 KFSD 261321 AAB
TAFFSD
TAF AMD
KFSD 261321Z 2613/2712 01018G25KT P6SM BKN015
     FM261400 36020G28KT 3SM -SN BKN015
     FM261500 35022G30KT P6SM OVC020
     FM262000 34018G25KT P6SM SCT025 BKN040
     FM270000 34009KT P6SM SCT040
     FM270700 34004KT P6SM SCT120=



000
FTUS43 KFSD 261320 AAA
TAFHON
TAF AMD
KHON 261320Z 2613/2712 36022G30KT P6SM BKN070
      TEMPO 2613/2614 OVC010
     FM261700 34018G25KT P6SM BKN030
     FM262100 35014G20KT P6SM BKN035
     FM270100 36006KT P6SM SCT040 BKN120
     FM270700 VRB03KT P6SM BKN100=



000
FTUS43 KFSD 261120
TAFSUX
TAF
KSUX 261120Z 2612/2712 35022G30KT 1SM -SN BLSN BKN009
      TEMPO 2612/2614 4SM -SN SCT009 OVC025
     FM261400 34022G30KT 5SM -SN BKN020
     FM261600 34022G30KT P6SM BKN025
     FM262300 34015G22KT P6SM SCT030
     FM270100 33010KT P6SM SCT040
     FM270700 34005KT P6SM SCT040=



000
FTUS43 KFSD 261120
TAFHON
TAF
KHON 261120Z 2612/2712 36022G30KT P6SM OVC020
      TEMPO 2612/2613 5SM -SN OVC010
     FM261700 34018G25KT P6SM BKN030
     FM262100 35014G20KT P6SM BKN035
     FM270100 36006KT P6SM SCT040 BKN120
     FM270700 VRB03KT P6SM BKN100=



000
FTUS43 KFSD 261120
TAFFSD
TAF
KFSD 261120Z 2612/2712 01018G25KT 4SM -SN SCT012 OVC025
      TEMPO 2612/2614 2SM -SN BKN012
     FM261400 36020G28KT 6SM -SN BKN015
     FM261500 35022G30KT P6SM OVC020
     FM262000 34018G25KT P6SM SCT025 BKN040
     FM270000 34009KT P6SM SCT040
     FM270700 34004KT P6SM SCT120=



000
FTUS43 KFSD 261120
TAFSUX
TAF
KSUX 261120Z 2612/2712 35022G30KT 1SM -SN BLSN BKN009
      TEMPO 2612/2614 4SM -SN SCT009 OVC025
     FM261400 34022G30KT 5SM -SN BKN020
     FM261600 34022G30KT P6SM BKN025
     FM262300 34015G22KT P6SM SCT030
     FM270100 33010KT P6SM SCT040
     FM270700 34005KT P6SM SCT040=



000
FTUS43 KFSD 260831 AAA
TAFSUX
TAF AMD
KSUX 260831Z 2609/2706 31010KT 5SM -RASN OVC009
      TEMPO 2609/2611 P6SM NSW OVC012
     FM261100 32017G27KT P6SM -SN OVC015
     FM261500 34021G30KT P6SM OVC015
     FM261900 34022G31KT P6SM SCT015
     FM270000 33015G22KT P6SM SCT050
     FM270300 34010KT P6SM SCT040=



000
FTUS43 KFSD 260831 AAA
TAFSUX
TAF AMD
KSUX 260831Z 2609/2706 31010KT 5SM -RASN OVC009
      TEMPO 2609/2611 P6SM NSW OVC012
     FM261100 32017G27KT P6SM -SN OVC015
     FM261500 34021G30KT P6SM OVC015
     FM261900 34022G31KT P6SM SCT015
     FM270000 33015G22KT P6SM SCT050
     FM270300 34010KT P6SM SCT040=



000
FTUS43 KFSD 260829 AAB
TAFFSD
TAF AMD
KFSD 260829Z 2608/2706 05006KT 4SM -SN OVC005
      TEMPO 2609/2611 6SM -SN OVC007
     FM261100 01015G22KT 4SM -SN OVC008
     FM261300 36020G30KT 6SM -SN OVC010
     FM261500 35022G30KT P6SM OVC015
     FM262000 34017G25KT P6SM SCT015
     FM270000 34009KT P6SM BKN030=



000
FTUS43 KFSD 260824 AAA
TAFHON
TAF AMD
KHON 260824Z 2608/2706 35012G18KT P6SM OVC008
     FM261000 35020G28KT 4SM -SN OVC009
      TEMPO 2610/2614 1SM -SN BLSN
     FM261400 34022G30KT P6SM BKN020
     FM261700 34020G28KT P6SM BKN025
     FM262300 35013G20KT P6SM BKN025
     FM270200 36006KT P6SM BKN025=



000
FTUS43 KFSD 260532
TAFSUX
TAF
KSUX 260532Z 2606/2706 18007KT 5SM -SN OVC015
     FM260900 31012KT P6SM OVC015
     FM261100 32017G27KT P6SM OVC015
     FM261500 34021G30KT P6SM OVC015
     FM261900 34022G31KT P6SM SCT015
     FM270000 33015G22KT P6SM SCT050
     FM270300 34010KT P6SM SCT040=



000
FTUS43 KFSD 260532
TAFHON
TAF
KHON 260532Z 2606/2706 35009KT P6SM OVC015
      TEMPO 2606/2609 OVC008
     FM260900 34018G27KT P6SM OVC009
     FM261400 34021G29KT P6SM BKN015
     FM261700 34019G27KT P6SM SCT015
     FM262200 35013G20KT P6SM BKN025
     FM270000 36006KT P6SM BKN025=



000
FTUS43 KFSD 260532
TAFFSD
TAF
KFSD 260532Z 2606/2706 11006KT 1SM -SN OVC005
      TEMPO 2606/2608 3SM -SN OVC010
     FM260800 28007KT P6SM OVC015
     FM261000 35018G25KT P6SM OVC015
     FM261400 35020G30KT P6SM OVC015
     FM262000 34017G25KT P6SM SCT015
     FM270000 34009KT P6SM BKN030=



000
FTUS43 KFSD 260532
TAFSUX
TAF
KSUX 260532Z 2606/2706 18007KT 5SM -SN OVC015
     FM260900 31012KT P6SM OVC015
     FM261100 32017G27KT P6SM OVC015
     FM261500 34021G30KT P6SM OVC015
     FM261900 34022G31KT P6SM SCT015
     FM270000 33015G22KT P6SM SCT050
     FM270300 34010KT P6SM SCT040=



000
FTUS43 KFSD 260332 AAA
TAFFSD
TAF AMD
KFSD 260332Z 2604/2624 13010KT 6SM -SN OVC040
      TEMPO 2604/2606 2SM -SN OVC015
     FM260900 36011KT 6SM -SN OVC015
     FM261300 34017G27KT P6SM OVC015
     FM261600 35020G30KT P6SM OVC015
     FM262000 34017G25KT P6SM SCT015=



000
FTUS43 KFSD 252320
TAFSUX
TAF
KSUX 252320Z 2600/2624 16009KT P6SM SCT070 OVC200
     FM260300 16010KT 6SM -RASN OVC025
     FM260500 15008KT 2SM -SN OVC015
     FM260900 30013KT 5SM -SN OVC010
     FM261300 31017G27KT P6SM OVC012
     FM261600 32021G30KT P6SM OVC015=



000
FTUS43 KFSD 252320
TAFFSD
TAF
KFSD 252320Z 2600/2624 14009KT P6SM OVC070
     FM260200 15009KT 2SM -SN OVC025
     FM260400 11007KT 1SM -SN OVC010
     FM260900 36011KT 4SM -SN OVC007
     FM261300 34017G27KT P6SM OVC008
     FM261600 35020G30KT P6SM OVC015
     FM262000 34017G25KT P6SM SCT015=



000
FTUS43 KFSD 252320
TAFSUX
TAF
KSUX 252320Z 2600/2624 16009KT P6SM SCT070 OVC200
     FM260300 16010KT 6SM -RASN OVC025
     FM260500 15008KT 2SM -SN OVC015
     FM260900 30013KT 5SM -SN OVC010
     FM261300 31017G27KT P6SM OVC012
     FM261600 32021G30KT P6SM OVC015=



000
FTUS43 KFSD 252320
TAFHON
TAF
KHON 252320Z 2600/2624 13008KT 2SM -SN OVC025
      TEMPO 2602/2605 1SM -SN OVC010
     FM260700 29010KT 4SM -SN OVC015
      TEMPO 2607/2608 2SM -SN OVC008
     FM261000 34018G27KT P6SM OVC009
     FM261400 34021G29KT P6SM BKN015
     FM261700 34019G27KT P6SM SCT015
     FM262200 34013G20KT P6SM SCT080=



000
FTUS43 KFSD 251720
TAFSUX
TAF
KSUX 251720Z 2518/2618 16009KT P6SM OVC200
     FM260300 16010KT 6SM -RASN OVC025
     FM260500 15008KT 2SM -SN OVC015
     FM260900 30013KT 5SM -SN OVC010
     FM261300 31017G27KT P6SM OVC012
     FM261600 32021G30KT P6SM OVC015=



000
FTUS43 KFSD 251720
TAFSUX
TAF
KSUX 251720Z 2518/2618 16009KT P6SM OVC200
     FM260300 16010KT 6SM -RASN OVC025
     FM260500 15008KT 2SM -SN OVC015
     FM260900 30013KT 5SM -SN OVC010
     FM261300 31017G27KT P6SM OVC012
     FM261600 32021G30KT P6SM OVC015=



000
FTUS43 KFSD 251720
TAFFSD
TAF
KFSD 251720Z 2518/2618 18008KT P6SM OVC200
     FM260000 16013KT P6SM OVC070
     FM260200 15009KT 2SM -SN OVC025
     FM260400 11007KT 1SM -SN OVC010
     FM260900 36011KT 4SM -SN OVC007
     FM261300 34017G27KT P6SM OVC008
     FM261600 35020G30KT P6SM OVC015=



000
FTUS43 KFSD 251720
TAFHON
TAF
KHON 251720Z 2518/2618 17007KT P6SM OVC200
     FM252200 15009KT P6SM OVC060
     FM260000 13008KT 2SM -SN OVC025
      TEMPO 2602/2605 1SM -SN OVC010
     FM260700 29010KT 4SM -SN OVC015
      TEMPO 2607/2608 2SM -SN OVC008
     FM261000 34018G27KT P6SM OVC009
     FM261400 34020G29KT P6SM BKN015=



000
FTUS43 KFSD 251137
TAFFSD
TAF
KFSD 251137Z 2512/2612 23004KT P6SM OVC080
     FM251600 18010KT P6SM BKN200
     FM260000 16013KT P6SM OVC070
     FM260200 15009KT 2SM -SN OVC025
     FM260600 VRB05KT 1 1/2SM -SN OVC010
     FM260900 36011KT 2SM -SN OVC007=



000
FTUS43 KFSD 251137
TAFHON
TAF
KHON 251137Z 2512/2612 18005KT P6SM OVC040
     FM251500 17009KT P6SM BKN200
     FM252100 15011KT P6SM OVC060
     FM260000 16008KT 2SM -SN OVC025
     FM260600 29010KT 2SM -SN OVC010
     FM260800 34018G26KT 2SM -SN BLSN OVC009=



000
FTUS43 KFSD 251137
TAFSUX
TAF
KSUX 251137Z 2512/2612 23005KT P6SM BKN008
     FM251500 17006KT P6SM BKN200
     FM251800 17013KT P6SM BKN200
     FM260200 16010KT 6SM -RASN OVC025
     FM260500 17008KT 2SM -SN OVC015
     FM260900 30013KT 3SM -SN OVC010=



000
FTUS43 KFSD 251137 CCA
TAFSUX
TAF COR
KSUX 251137Z 2512/2612 23005KT P6SM BKN080
     FM251500 17006KT P6SM BKN200
     FM251800 17013KT P6SM BKN200
     FM260200 16010KT 6SM -RASN OVC025
     FM260500 17008KT 2SM -SN OVC015
     FM260900 30013KT 3SM -SN OVC010=



000
FTUS43 KFSD 251137 CCA
TAFSUX
TAF COR
KSUX 251137Z 2512/2612 23005KT P6SM BKN080
     FM251500 17006KT P6SM BKN200
     FM251800 17013KT P6SM BKN200
     FM260200 16010KT 6SM -RASN OVC025
     FM260500 17008KT 2SM -SN OVC015
     FM260900 30013KT 3SM -SN OVC010=



000
FTUS43 KFSD 251137
TAFSUX
TAF
KSUX 251137Z 2512/2612 23005KT P6SM BKN008
     FM251500 17006KT P6SM BKN200
     FM251800 17013KT P6SM BKN200
     FM260200 16010KT 6SM -RASN OVC025
     FM260500 17008KT 2SM -SN OVC015
     FM260900 30013KT 3SM -SN OVC010=



    US Dept of Commerce
    National Oceanic and Atmospheric Administration
    National Weather Service
    1325 East West Highway
    Silver Spring, MD 20910
    Page Author: NWS Internet Services Team
Disclaimer
Information Quality
Credits
Glossary
Privacy Policy
Freedom of Information Act (FOIA)
About Us
Career Opportunities